ADDS METAR Data INFO
IDs: Format: Raw Decoded Include TAF

Data at: 0717 UTC 24 Jun 2018

KSNS 240653Z AUTO 33007KT 7SM OVC005 14/13 A2983 RMK AO2 SLP111 T01440133
KSNS 240553Z AUTO 34011KT 8SM OVC008 15/13 A2983 RMK AO2 SLP110 T01500128 10206 20144 53008
KSNS 240509Z AUTO 33012KT 9SM BKN009 OVC013 14/13 A2982 RMK AO2 CIG 007V012 T01440128
KSNS 240453Z AUTO 33010KT 8SM OVC013 15/12 A2982 RMK AO2 SLP106 T01500122
KSNS 240437Z AUTO 34011KT 7SM BKN013 15/12 A2981 RMK AO2 T01500122
KSNS 240353Z AUTO 34013KT 7SM CLR 15/12 A2981 RMK AO2 SLP103 T01500122
KSNS 240253Z AUTO 33014KT 6SM HZ CLR 16/12 A2980 RMK AO2 SLP101 T01610122 53003
KSNS 240153Z 32015G19KT 7SM CLR 17/12 A2980 RMK AO2 SLP098 T01720117
KSNS 240053Z 33015KT 7SM CLR 19/12 A2979 RMK AO2 SLP096 T01940117
KSNS 232353Z 33015KT 8SM CLR 21/12 A2979 RMK AO2 SLP098 60000 T02060117 10267 20206 51002
KSNS 232253Z 34014KT 8SM CLR 21/12 A2979 RMK AO2 SLP097 T02110117
KSNS 232153Z 33015KT 8SM CLR 22/12 A2979 RMK AO2 RAB01E11 SLPNO P0000 T02170117
KSNS 232053Z 33014KT 8SM CLR 22/12 A2979 RMK AO2 SLPNO 60000 T02220117 53001
KSNS 231953Z 32014KT 8SM CLR 23/13 A2979 RMK AO2 SLP095 T02330128
KSNS 231853Z 30012KT 8SM CLR 24/13 A2978 RMK AO2 RAB15E23 SLP093 P0000 T02390133 $
KSNS 231753Z 00000KT 10SM CLR 25/12 A2979 RMK AO2 SLP095 T02500117 10250 20106 58004 $
KSNS 231653Z 15005KT 9SM CLR 22/12 A2979 RMK AO2 SLP095 T02220122
KSNS 231553Z 14006KT 7SM CLR 18/12 A2980 RMK AO2 SLP100 T01830122 $
KSNS 231453Z 14008KT 6SM HZ CLR 14/11 A2980 RMK AO2 SLP099 T01440111 51003 $
KSNS 231353Z 14006KT 5SM BR CLR 11/10 A2979 RMK AO2 SLP097 T01110100 $
KSNS 231253Z 00000KT 5SM BR CLR 11/09 A2980 RMK AO2 SLP099 T01060089 $
KSNS 231153Z AUTO 00000KT 7SM CLR 11/09 A2979 RMK AO2 SLP097 T01110094 56008 $
KSNS 231053Z AUTO 36003KT 7SM CLR 13/11 A2979 RMK AO2 SLP097 T01280106 $
KSNS 230953Z AUTO 35005KT 7SM CLR A2980 RMK AO2 SLPNO $
KSNS 230853Z AUTO 35007KT 7SM CLR A2981 RMK AO2 SLPNO 55006 $
KSNS 230753Z AUTO 33005KT 7SM CLR 13/11 A2981 RMK AO2 SLP104 T01330111 402280111
KSNS 230653Z AUTO 33010KT 7SM CLR 14/11 A2983 RMK AO2 SLP109 T01390111
KSNS 230553Z AUTO 33009KT 8SM CLR 15/11 A2983 RMK AO2 SLP111 T01500111 10211 20150 56001
KSNS 230453Z AUTO 35008KT 8SM CLR 16/11 A2984 RMK AO2 SLP112 T01610111
KSNS 230353Z AUTO 35012KT 8SM CLR 16/11 A2983 RMK AO2 SLPNO T01610111
KSNS 230253Z AUTO 33011KT 8SM CLR 18/11 A2983 RMK AO2 SLP111 T01780111 56010
KSNS 230153Z 33011KT 9SM CLR 19/11 A2985 RMK AO2 SLP115 T01940111 $
KSNS 230053Z 31012KT 9SM CLR 20/12 A2985 RMK AO2 SLP116 T02000117 $
KSNS 222353Z 32013KT 9SM CLR 21/12 A2986 RMK AO2 SLP122 T02060117 10228 20200 56014 $
KSNS 222253Z 31014KT 9SM CLR 21/12 A2988 RMK AO2 SLP125 T02110117 $
KSNS 222153Z 31014KT 9SM CLR 22/12 A2989 RMK AO2 SLP129 T02220122 $
KSNS 222053Z 31011KT 10SM CLR 22/12 A2990 RMK AO2 SLP135 T02220117 58016 $
KSNS 221953Z 31013KT 10SM CLR 22/12 A2993 RMK AO2 SLP143 T02170117 $